Time;durP1;ratioP1;P1;durP2;ratioP2;P2;SDS_P1;SDS_P2;PMS_P1;PMS_P2;Temp;Humidity;BMP_temperature;BMP_pressure;BME280_temperature;BME280_humidity;BME280_pressure;Samples;Min_cycle;Max_cycle;Signal;HPM_P1;HPM_P2
2022/10/31 00:01:15;;;;;;;15.98;7.90;;;;;;;;;;5072519;28;20049;-89
2022/10/31 00:03:43;;;;;;;13.75;7.60;;;;;;;;;;5072593;28;20144;-89
2022/10/31 00:06:10;;;;;;;18.38;7.43;;;;;;;;;;5073042;28;20136;-90
2022/10/31 00:08:37;;;;;;;14.60;7.43;;;;;;;;;;5072406;28;20063;-90
2022/10/31 00:11:08;;;;;;;14.90;7.28;;;;;;;;;;5072311;28;20045;-90
2022/10/31 00:13:35;;;;;;;18.88;8.50;;;;;;;;;;5072509;28;20440;-89
2022/10/31 00:16:03;;;;;;;24.23;8.13;;;;;;;;;;5072332;28;20057;-89
2022/10/31 00:18:30;;;;;;;14.40;7.65;;;;;;;;;;5072250;28;20060;-89
2022/10/31 00:21:03;;;;;;;15.77;7.95;;;;;;;;;;5072425;28;20493;-89
2022/10/31 00:23:30;;;;;;;15.63;7.95;;;;;;;;;;5072103;28;20052;-90
2022/10/31 00:26:01;;;;;;;14.45;7.50;;;;;;;;;;5072101;28;20044;-90
2022/10/31 00:28:30;;;;;;;16.60;8.10;;;;;;;;;;5075576;28;20048;-89
2022/10/31 00:31:05;;;;;;;20.20;8.10;;;;;;;;;;5076191;28;20065;-90
2022/10/31 00:33:33;;;;;;;16.48;8.23;;;;;;;;;;5075695;28;20041;-89
2022/10/31 00:36:00;;;;;;;14.40;8.02;;;;;;;;;;5075826;28;20079;-90
2022/10/31 00:38:28;;;;;;;16.70;7.88;;;;;;;;;;5075950;28;20052;-89
2022/10/31 00:40:55;;;;;;;10.88;6.70;;;;;;;;;;5075782;28;20412;-89
2022/10/31 00:43:22;;;;;;;19.77;7.90;;;;;;;;;;5075857;28;20049;-89
2022/10/31 00:45:49;;;;;;;13.48;8.32;;;;;;;;;;5076035;28;20052;-89
2022/10/31 00:48:16;;;;;;;16.48;7.55;;;;;;;;;;5075882;28;20052;-90
2022/10/31 00:50:44;;;;;;;17.55;9.20;;;;;;;;;;5075558;28;20517;-90
2022/10/31 00:53:11;;;;;;;14.23;7.75;;;;;;;;;;5075772;28;20110;-90
2022/10/31 00:55:38;;;;;;;15.48;8.18;;;;;;;;;;5075667;28;20480;-91
2022/10/31 00:58:05;;;;;;;12.82;7.07;;;;;;;;;;5075958;28;20496;-90
2022/10/31 01:00:33;;;;;;;13.68;7.15;;;;;;;;;;5075593;28;20052;-90
2022/10/31 01:03:00;;;;;;;20.38;7.50;;;;;;;;;;5075362;28;20055;-90
2022/10/31 01:05:28;;;;;;;12.35;6.35;;;;;;;;;;5075236;28;20056;-90
2022/10/31 01:07:55;;;;;;;10.75;6.50;;;;;;;;;;5077102;28;20048;-90
2022/10/31 01:10:22;;;;;;;17.73;7.90;;;;;;;;;;5086778;28;20059;-90
2022/10/31 01:12:50;;;;;;;15.15;7.40;;;;;;;;;;5076725;28;20048;-90
2022/10/31 01:15:19;;;;;;;14.05;7.30;;;;;;;;;;5075270;28;20051;-90
2022/10/31 01:17:47;;;;;;;9.93;6.95;;;;;;;;;;5075462;28;20048;-90
2022/10/31 01:20:15;;;;;;;16.15;7.43;;;;;;;;;;5075066;28;20049;-90
2022/10/31 01:22:42;;;;;;;9.88;6.50;;;;;;;;;;5075381;28;20051;-90
2022/10/31 01:25:09;;;;;;;12.90;6.63;;;;;;;;;;5075112;28;20048;-90
2022/10/31 01:27:37;;;;;;;10.73;6.88;;;;;;;;;;5075556;28;20056;-91
2022/10/31 01:30:05;;;;;;;11.73;6.47;;;;;;;;;;5075015;28;20041;-89
2022/10/31 01:32:32;;;;;;;17.23;6.40;;;;;;;;;;5075120;28;20484;-90
2022/10/31 01:34:59;;;;;;;11.80;7.40;;;;;;;;;;5075313;28;20055;-90
2022/10/31 01:37:27;;;;;;;14.05;7.15;;;;;;;;;;5074805;28;20082;-90
2022/10/31 01:39:54;;;;;;;11.05;5.93;;;;;;;;;;5075297;28;20053;-90
2022/10/31 01:42:22;;;;;;;18.30;6.97;;;;;;;;;;5075227;28;20060;-90
2022/10/31 01:44:52;;;;;;;14.15;6.43;;;;;;;;;;5074830;28;20404;-90
2022/10/31 01:47:22;;;;;;;18.40;8.98;;;;;;;;;;5074831;28;20052;-90
2022/10/31 01:49:51;;;;;;;13.60;7.43;;;;;;;;;;5074885;28;20050;-90
2022/10/31 01:52:18;;;;;;;11.43;6.90;;;;;;;;;;5074848;28;20055;-90
2022/10/31 01:54:50;;;;;;;13.05;7.00;;;;;;;;;;5074887;28;20059;-90
2022/10/31 01:57:18;;;;;;;14.75;7.03;;;;;;;;;;5074456;28;20403;-90
2022/10/31 01:59:48;;;;;;;11.70;6.88;;;;;;;;;;5074827;28;20057;-90
2022/10/31 02:02:17;;;;;;;14.98;6.90;;;;;;;;;;5074845;28;20283;-90
2022/10/31 02:04:45;;;;;;;18.35;6.78;;;;;;;;;;5074323;28;20067;-90
2022/10/31 02:07:19;;;;;;;11.15;7.60;;;;;;;;;;5074539;28;20052;-89
2022/10/31 02:09:48;;;;;;;23.08;7.78;;;;;;;;;;5074520;28;20118;-91
2022/10/31 02:12:15;;;;;;;9.52;6.20;;;;;;;;;;5074007;28;20053;-90
2022/10/31 02:14:43;;;;;;;12.48;7.28;;;;;;;;;;5074092;28;20072;-90
2022/10/31 02:17:10;;;;;;;17.48;7.30;;;;;;;;;;5074245;28;20048;-90
2022/10/31 02:19:53;;;;;;;14.90;7.32;;;;;;;;;;5074087;28;20045;-90
2022/10/31 02:22:38;;;;;;;11.80;6.15;;;;;;;;;;5073965;28;20053;-91
2022/10/31 02:25:06;;;;;;;10.85;6.47;;;;;;;;;;5080961;28;20052;-90
2022/10/31 02:27:36;;;;;;;10.50;6.32;;;;;;;;;;5081309;28;20059;-90
2022/10/31 02:30:05;;;;;;;12.70;6.70;;;;;;;;;;5074214;28;20052;-90
2022/10/31 02:32:44;;;;;;;14.68;6.97;;;;;;;;;;5073712;28;20110;-90
2022/10/31 02:35:18;;;;;;;16.65;7.10;;;;;;;;;;5074058;28;20059;-90
2022/10/31 02:37:45;;;;;;;15.05;6.43;;;;;;;;;;5073566;28;20049;-90
2022/10/31 02:40:30;;;;;;;16.55;6.53;;;;;;;;;;5073670;28;20047;-90
2022/10/31 02:42:57;;;;;;;9.55;6.20;;;;;;;;;;5073865;28;20416;-90
2022/10/31 02:45:31;;;;;;;12.73;6.47;;;;;;;;;;5073566;28;20075;-90
2022/10/31 02:48:01;;;;;;;10.00;5.73;;;;;;;;;;5073465;28;20056;-90
2022/10/31 02:50:36;;;;;;;9.88;5.65;;;;;;;;;;5072527;28;20049;-91
2022/10/31 02:53:04;;;;;;;11.02;6.07;;;;;;;;;;5073251;28;20048;-90
2022/10/31 02:55:31;;;;;;;15.32;6.57;;;;;;;;;;5073246;28;20049;-90
2022/10/31 02:58:02;;;;;;;11.45;5.93;;;;;;;;;;5073229;28;20071;-90
2022/10/31 03:00:34;;;;;;;12.48;5.95;;;;;;;;;;5073122;28;20041;-90
2022/10/31 03:03:11;;;;;;;14.65;5.88;;;;;;;;;;5073409;28;20060;-90
2022/10/31 03:05:41;;;;;;;7.57;5.47;;;;;;;;;;5074151;28;20445;-90
2022/10/31 03:08:17;;;;;;;12.55;5.63;;;;;;;;;;5073284;28;20131;-91
2022/10/31 03:10:55;;;;;;;15.60;6.32;;;;;;;;;;5073784;28;20055;-90
2022/10/31 03:13:33;;;;;;;10.00;6.03;;;;;;;;;;5073039;28;20052;-90
2022/10/31 03:16:14;;;;;;;12.63;6.07;;;;;;;;;;5073153;28;20053;-91
2022/10/31 03:18:45;;;;;;;12.90;5.97;;;;;;;;;;5072990;28;20135;-90
2022/10/31 03:21:20;;;;;;;15.02;6.93;;;;;;;;;;5073039;28;20052;-90
2022/10/31 03:23:48;;;;;;;13.98;6.35;;;;;;;;;;5072787;28;20058;-90
2022/10/31 03:26:16;;;;;;;19.40;6.53;;;;;;;;;;5073021;28;20053;-90
2022/10/31 03:29:03;;;;;;;18.23;6.72;;;;;;;;;;5072815;28;20068;-90
2022/10/31 03:31:34;;;;;;;20.35;6.85;;;;;;;;;;5072417;28;20049;-89
2022/10/31 03:34:02;;;;;;;15.60;6.50;;;;;;;;;;5072875;28;20516;-90
2022/10/31 03:36:31;;;;;;;10.38;6.30;;;;;;;;;;5072872;28;20049;-90
2022/10/31 03:39:00;;;;;;;7.47;5.63;;;;;;;;;;5072925;28;20052;-90
2022/10/31 03:41:32;;;;;;;15.93;6.22;;;;;;;;;;5082261;28;20048;-90
2022/10/31 03:44:02;;;;;;;9.75;6.30;;;;;;;;;;5078319;28;20059;-90
2022/10/31 03:46:29;;;;;;;10.75;6.05;;;;;;;;;;5072628;28;20052;-90
2022/10/31 03:48:57;;;;;;;14.60;5.90;;;;;;;;;;5072686;28;20052;-91
2022/10/31 03:51:24;;;;;;;15.95;6.93;;;;;;;;;;5072431;28;20050;-89
2022/10/31 03:53:55;;;;;;;12.10;6.07;;;;;;;;;;5070866;28;20055;-90
2022/10/31 03:56:42;;;;;;;13.00;6.38;;;;;;;;;;5072330;28;20049;-89
2022/10/31 03:59:18;;;;;;;11.23;6.75;;;;;;;;;;5072858;28;20476;-90
2022/10/31 04:01:48;;;;;;;15.95;7.13;;;;;;;;;;5074914;28;20052;-90
2022/10/31 04:04:15;;;;;;;14.48;7.57;;;;;;;;;;5076511;28;20055;-90
2022/10/31 04:06:44;;;;;;;13.63;7.50;;;;;;;;;;5076232;28;20136;-90
2022/10/31 04:09:13;;;;;;;11.75;6.63;;;;;;;;;;5076611;28;20056;-90
2022/10/31 04:11:46;;;;;;;12.57;7.13;;;;;;;;;;5076382;28;20068;-90
2022/10/31 04:14:14;;;;;;;16.23;6.47;;;;;;;;;;5076329;28;20059;-90
2022/10/31 04:16:43;;;;;;;11.60;7.20;;;;;;;;;;5076474;28;20056;-90
2022/10/31 04:19:11;;;;;;;17.60;7.70;;;;;;;;;;5076405;28;20051;-90
2022/10/31 04:21:38;;;;;;;13.75;6.90;;;;;;;;;;5076388;28;20409;-90
2022/10/31 04:24:05;;;;;;;13.32;6.35;;;;;;;;;;5076128;28;20045;-90
2022/10/31 04:26:32;;;;;;;12.43;6.60;;;;;;;;;;5076775;28;20059;-90
2022/10/31 04:29:00;;;;;;;10.00;6.03;;;;;;;;;;5076534;28;20049;-91
2022/10/31 04:31:27;;;;;;;12.68;6.30;;;;;;;;;;5076250;28;20053;-90
2022/10/31 04:33:54;;;;;;;11.02;6.40;;;;;;;;;;5075742;28;20144;-90
2022/10/31 04:36:21;;;;;;;15.25;6.70;;;;;;;;;;5076279;28;20052;-90
2022/10/31 04:38:48;;;;;;;19.23;7.57;;;;;;;;;;5076324;28;20052;-90
2022/10/31 04:41:16;;;;;;;11.25;6.40;;;;;;;;;;5075939;28;20503;-89
2022/10/31 04:43:43;;;;;;;16.13;6.97;;;;;;;;;;5075989;28;20059;-89
2022/10/31 04:46:10;;;;;;;10.30;6.30;;;;;;;;;;5075989;28;20055;-89
2022/10/31 04:48:37;;;;;;;16.48;6.35;;;;;;;;;;5075987;28;20106;-90
2022/10/31 04:51:05;;;;;;;14.95;6.75;;;;;;;;;;5076206;28;20059;-90
2022/10/31 04:53:32;;;;;;;15.18;7.53;;;;;;;;;;5076101;28;20071;-90
2022/10/31 04:56:00;;;;;;;19.63;8.60;;;;;;;;;;5076033;28;20049;-90
2022/10/31 04:58:28;;;;;;;11.75;6.82;;;;;;;;;;5090165;28;20049;-90
2022/10/31 05:00:56;;;;;;;14.52;6.63;;;;;;;;;;5078610;28;20127;-90
2022/10/31 05:03:23;;;;;;;17.25;6.47;;;;;;;;;;5075865;28;20059;-90
2022/10/31 05:05:50;;;;;;;13.63;7.00;;;;;;;;;;5075257;28;20048;-90
2022/10/31 05:08:17;;;;;;;11.38;6.40;;;;;;;;;;5075565;28;20052;-90
2022/10/31 05:10:45;;;;;;;16.13;7.65;;;;;;;;;;5075316;28;20044;-90
2022/10/31 05:13:12;;;;;;;13.55;7.20;;;;;;;;;;5074490;28;20481;-90
2022/10/31 05:15:39;;;;;;;18.58;8.82;;;;;;;;;;5075609;28;20048;-90
2022/10/31 05:18:06;;;;;;;16.35;9.32;;;;;;;;;;5075557;28;20059;-90
2022/10/31 05:20:34;;;;;;;22.42;8.70;;;;;;;;;;5075328;28;20063;-90
2022/10/31 05:23:01;;;;;;;15.35;7.80;;;;;;;;;;5075544;28;20427;-90
2022/10/31 05:25:29;;;;;;;14.65;7.72;;;;;;;;;;5075679;28;20055;-90
2022/10/31 05:27:57;;;;;;;20.65;6.88;;;;;;;;;;5075521;28;20052;-90
2022/10/31 05:30:26;;;;;;;15.20;7.43;;;;;;;;;;5075345;28;20048;-90
2022/10/31 05:32:53;;;;;;;18.80;7.05;;;;;;;;;;5075250;28;20063;-90
2022/10/31 05:35:31;;;;;;;30.02;6.05;;;;;;;;;;5075290;28;20062;-90
2022/10/31 05:37:58;;;;;;;19.75;7.68;;;;;;;;;;5075091;28;20048;-90
2022/10/31 05:40:26;;;;;;;13.00;6.75;;;;;;;;;;5074761;28;20052;-90
2022/10/31 05:42:55;;;;;;;13.57;7.95;;;;;;;;;;5075128;28;20132;-89
2022/10/31 05:45:23;;;;;;;15.68;7.72;;;;;;;;;;5074535;28;20076;-90
2022/10/31 05:47:54;;;;;;;20.98;7.15;;;;;;;;;;5074643;28;20049;-90
2022/10/31 05:50:21;;;;;;;14.30;7.13;;;;;;;;;;5074825;28;20058;-90
2022/10/31 05:52:55;;;;;;;15.90;6.53;;;;;;;;;;5074398;28;20051;-90
2022/10/31 05:55:22;;;;;;;12.45;6.53;;;;;;;;;;5075386;28;20539;-90
2022/10/31 05:57:49;;;;;;;10.57;6.30;;;;;;;;;;5075698;28;20053;-91
2022/10/31 06:00:17;;;;;;;13.52;5.82;;;;;;;;;;5075423;28;20056;-90
2022/10/31 06:02:44;;;;;;;8.90;6.05;;;;;;;;;;5075160;28;20048;-91
2022/10/31 06:05:12;;;;;;;11.85;6.30;;;;;;;;;;5074905;28;20056;-90
2022/10/31 06:07:39;;;;;;;16.25;7.18;;;;;;;;;;5074183;28;20052;-90
2022/10/31 06:10:07;;;;;;;12.77;8.60;;;;;;;;;;5074320;28;20067;-90
2022/10/31 06:12:37;;;;;;;22.88;13.02;;;;;;;;;;5080638;28;20053;-90
2022/10/31 06:15:08;;;;;;;15.82;9.18;;;;;;;;;;5090260;28;20111;-90
2022/10/31 06:17:35;;;;;;;17.45;8.48;;;;;;;;;;5074582;28;20127;-90
2022/10/31 06:20:03;;;;;;;11.15;7.75;;;;;;;;;;5074923;28;20131;-90
2022/10/31 06:22:30;;;;;;;18.42;8.82;;;;;;;;;;5074061;28;20051;-90
2022/10/31 06:24:58;;;;;;;11.80;6.93;;;;;;;;;;5073069;28;20056;-90
2022/10/31 06:27:25;;;;;;;19.63;6.95;;;;;;;;;;5074960;28;20044;-90
2022/10/31 06:29:52;;;;;;;14.20;6.57;;;;;;;;;;5073876;28;20079;-90
2022/10/31 06:32:20;;;;;;;9.90;6.50;;;;;;;;;;5073445;28;20049;-90
2022/10/31 06:34:50;;;;;;;14.32;6.80;;;;;;;;;;5073831;28;20056;-90
2022/10/31 06:37:17;;;;;;;13.07;7.35;;;;;;;;;;5073560;28;20048;-90
2022/10/31 06:39:44;;;;;;;18.23;7.20;;;;;;;;;;5073810;28;20049;-90
2022/10/31 06:42:11;;;;;;;13.55;7.15;;;;;;;;;;5073750;28;20048;-90
2022/10/31 06:44:39;;;;;;;13.48;6.03;;;;;;;;;;5073556;28;20047;-90
2022/10/31 06:47:06;;;;;;;15.00;6.95;;;;;;;;;;5073094;28;20056;-90
2022/10/31 06:49:33;;;;;;;17.75;6.97;;;;;;;;;;5073382;28;20055;-90
2022/10/31 06:52:01;;;;;;;16.98;7.07;;;;;;;;;;5073634;28;20408;-89
2022/10/31 06:54:28;;;;;;;9.80;7.05;;;;;;;;;;5074194;28;20048;-89
2022/10/31 06:56:55;;;;;;;24.73;8.23;;;;;;;;;;5073471;28;20460;-89
2022/10/31 06:59:24;;;;;;;29.95;9.48;;;;;;;;;;5073523;28;20525;-90
2022/10/31 07:01:51;;;;;;;25.33;9.38;;;;;;;;;;5073235;28;20048;-90
2022/10/31 07:04:18;;;;;;;16.15;7.93;;;;;;;;;;5073217;28;20044;-90
2022/10/31 07:06:46;;;;;;;18.48;8.77;;;;;;;;;;5073391;28;20063;-90
2022/10/31 07:09:18;;;;;;;16.95;7.60;;;;;;;;;;5073368;28;20044;-90
2022/10/31 07:11:45;;;;;;;19.83;9.57;;;;;;;;;;5073149;28;20056;-90
2022/10/31 07:14:12;;;;;;;11.45;7.72;;;;;;;;;;5073712;28;20127;-89
2022/10/31 07:16:39;;;;;;;22.08;10.45;;;;;;;;;;5073450;28;20041;-90
2022/10/31 07:19:07;;;;;;;22.10;10.43;;;;;;;;;;5072955;28;20064;-90
2022/10/31 07:21:34;;;;;;;16.67;9.60;;;;;;;;;;5073851;28;20059;-90
2022/10/31 07:24:01;;;;;;;16.98;9.10;;;;;;;;;;5073094;28;20052;-89
2022/10/31 07:26:28;;;;;;;17.00;10.45;;;;;;;;;;5073638;28;20048;-90
2022/10/31 07:28:55;;;;;;;15.00;9.52;;;;;;;;;;5083624;28;20049;-90
2022/10/31 07:31:24;;;;;;;19.70;10.73;;;;;;;;;;5083818;28;20051;-90
2022/10/31 07:33:51;;;;;;;17.67;9.60;;;;;;;;;;5072942;28;20053;-90
2022/10/31 07:36:18;;;;;;;14.73;8.15;;;;;;;;;;5072446;28;20481;-90
2022/10/31 07:38:45;;;;;;;17.23;8.90;;;;;;;;;;5074002;28;20056;-90
2022/10/31 07:41:13;;;;;;;18.55;8.82;;;;;;;;;;5073987;28;20167;-90
2022/10/31 07:43:40;;;;;;;20.73;10.07;;;;;;;;;;5072926;28;20059;-89
2022/10/31 07:46:07;;;;;;;23.10;11.27;;;;;;;;;;5072760;28;20048;-90
2022/10/31 07:48:34;;;;;;;24.67;11.13;;;;;;;;;;5073621;28;20051;-90
2022/10/31 07:51:02;;;;;;;19.83;10.48;;;;;;;;;;5072805;28;20052;-90
2022/10/31 07:53:29;;;;;;;31.67;9.48;;;;;;;;;;5072195;28;20059;-90
2022/10/31 07:55:56;;;;;;;18.70;8.95;;;;;;;;;;5072717;28;20428;-90
2022/10/31 07:58:24;;;;;;;22.38;9.48;;;;;;;;;;5072557;28;20057;-90
2022/10/31 08:00:52;;;;;;;16.70;9.70;;;;;;;;;;5073568;28;20527;-90
2022/10/31 08:03:20;;;;;;;24.45;10.68;;;;;;;;;;5072947;28;20140;-90
2022/10/31 08:05:47;;;;;;;22.25;10.20;;;;;;;;;;5072489;28;20052;-90
2022/10/31 08:08:15;;;;;;;23.27;11.63;;;;;;;;;;5072343;28;20534;-90
2022/10/31 08:10:42;;;;;;;53.60;17.85;;;;;;;;;;5072594;28;20044;-89
2022/10/31 08:13:11;;;;;;;36.08;17.25;;;;;;;;;;5072887;28;20057;-90
2022/10/31 08:15:41;;;;;;;49.15;18.88;;;;;;;;;;5072466;28;20407;-88
2022/10/31 08:18:13;;;;;;;48.58;19.52;;;;;;;;;;5072499;28;20045;-88
2022/10/31 08:20:44;;;;;;;28.67;14.23;;;;;;;;;;5072411;28;20420;-88
2022/10/31 08:23:12;;;;;;;48.28;16.35;;;;;;;;;;5072322;28;20155;-87
2022/10/31 08:25:39;;;;;;;89.05;23.52;;;;;;;;;;5072370;28;20056;-88
2022/10/31 08:28:07;;;;;;;101.07;22.15;;;;;;;;;;5072236;28;20056;-87
2022/10/31 08:30:35;;;;;;;189.52;24.58;;;;;;;;;;5072170;28;20056;-87
2022/10/31 08:33:06;;;;;;;158.65;23.75;;;;;;;;;;5072091;28;20045;-87
2022/10/31 08:35:33;;;;;;;82.60;14.63;;;;;;;;;;5072117;28;20048;-86
2022/10/31 08:38:01;;;;;;;40.60;10.95;;;;;;;;;;5072105;28;20048;-87
2022/10/31 08:40:30;;;;;;;48.20;9.32;;;;;;;;;;5072009;28;20045;-87
2022/10/31 08:42:58;;;;;;;26.70;7.28;;;;;;;;;;5072162;28;20128;-87
2022/10/31 08:45:25;;;;;;;26.45;6.38;;;;;;;;;;5078163;28;20054;-88
2022/10/31 08:47:52;;;;;;;24.13;6.07;;;;;;;;;;5077182;28;20053;-87
2022/10/31 08:50:20;;;;;;;15.32;5.43;;;;;;;;;;5075633;28;20489;-87
2022/10/31 08:52:47;;;;;;;24.55;6.53;;;;;;;;;;5075885;28;20413;-87
2022/10/31 08:55:30;;;;;;;16.15;5.20;;;;;;;;;;5075861;28;20056;-88
2022/10/31 08:57:58;;;;;;;20.50;5.82;;;;;;;;;;5075483;28;20448;-87
2022/10/31 09:00:26;;;;;;;19.35;5.35;;;;;;;;;;5075585;28;20063;-88
2022/10/31 09:02:58;;;;;;;20.05;4.93;;;;;;;;;;5075721;28;20094;-87
2022/10/31 09:05:25;;;;;;;22.95;5.18;;;;;;;;;;5075612;28;20056;-87
2022/10/31 09:07:57;;;;;;;19.67;4.93;;;;;;;;;;5075592;28;20048;-87
2022/10/31 09:10:25;;;;;;;14.80;4.57;;;;;;;;;;5075325;28;20049;-88
2022/10/31 09:13:00;;;;;;;27.10;7.60;;;;;;;;;;5075794;28;20057;-87
2022/10/31 09:15:27;;;;;;;18.58;4.75;;;;;;;;;;5075277;28;20053;-86
2022/10/31 09:17:55;;;;;;;23.20;4.65;;;;;;;;;;5075354;28;20067;-88
2022/10/31 09:20:22;;;;;;;18.63;4.78;;;;;;;;;;5075342;28;20048;-89
2022/10/31 09:22:56;;;;;;;19.63;5.05;;;;;;;;;;5075558;28;20135;-88
2022/10/31 09:25:24;;;;;;;11.73;3.55;;;;;;;;;;5074971;28;20044;-87
2022/10/31 09:27:51;;;;;;;17.33;4.70;;;;;;;;;;5074979;28;20052;-88
2022/10/31 09:30:18;;;;;;;18.25;4.60;;;;;;;;;;5075179;28;20050;-88
2022/10/31 09:32:46;;;;;;;18.83;5.10;;;;;;;;;;5075406;28;20068;-88
2022/10/31 09:35:13;;;;;;;14.75;4.68;;;;;;;;;;5074942;28;20068;-89
2022/10/31 09:37:40;;;;;;;18.10;5.25;;;;;;;;;;5074728;28;20072;-87
2022/10/31 09:40:08;;;;;;;19.92;5.10;;;;;;;;;;5075194;28;20056;-87
2022/10/31 09:42:44;;;;;;;20.02;4.70;;;;;;;;;;5075030;28;20112;-88
2022/10/31 09:45:16;;;;;;;19.58;4.50;;;;;;;;;;5074839;28;20049;-88
2022/10/31 09:48:10;;;;;;;18.67;4.57;;;;;;;;;;5075041;28;20390;-89
2022/10/31 09:50:40;;;;;;;17.55;4.82;;;;;;;;;;5074710;28;20664;-90
2022/10/31 09:53:34;;;;;;;12.68;3.60;;;;;;;;;;5074224;28;20135;-88
2022/10/31 09:56:02;;;;;;;12.75;4.32;;;;;;;;;;5059291;28;20059;-87
2022/10/31 09:58:31;;;;;;;10.15;3.40;;;;;;;;;;5074614;28;20052;-89
2022/10/31 10:01:04;;;;;;;14.95;4.05;;;;;;;;;;5083697;28;20056;-89
2022/10/31 10:03:44;;;;;;;16.60;3.90;;;;;;;;;;5080389;28;20135;-88
2022/10/31 10:06:14;;;;;;;15.30;5.95;;;;;;;;;;5074247;28;20501;-89
2022/10/31 10:08:41;;;;;;;13.07;3.45;;;;;;;;;;5074549;28;20482;-88
2022/10/31 10:11:17;;;;;;;16.77;6.50;;;;;;;;;;5074200;28;20053;-89
2022/10/31 10:13:51;;;;;;;11.73;2.85;;;;;;;;;;5074368;28;20469;-88
2022/10/31 10:16:33;;;;;;;12.25;3.58;;;;;;;;;;5074273;28;20048;-89
2022/10/31 10:19:25;;;;;;;13.25;3.47;;;;;;;;;;5074340;28;20056;-89
2022/10/31 10:21:56;;;;;;;21.10;13.70;;;;;;;;;;5074242;28;20063;-90
2022/10/31 10:24:29;;;;;;;7.20;2.95;;;;;;;;;;5073822;28;20067;-88
2022/10/31 10:27:02;;;;;;;12.63;3.63;;;;;;;;;;5074309;28;20044;-88
2022/10/31 10:29:51;;;;;;;9.13;3.17;;;;;;;;;;5074200;28;20048;-88
2022/10/31 10:32:21;;;;;;;13.18;3.83;;;;;;;;;;5073949;28;20057;-89
2022/10/31 10:34:51;;;;;;;13.48;3.80;;;;;;;;;;5073825;28;20048;-88
2022/10/31 10:37:24;;;;;;;8.10;3.30;;;;;;;;;;5073903;28;20051;-89
2022/10/31 10:39:55;;;;;;;10.70;3.95;;;;;;;;;;5074019;28;20052;-89
2022/10/31 10:48:12;;;;;;;8.57;2.43;;;;;;;;;;5074440;28;20502;-89
2022/10/31 10:50:42;;;;;;;9.95;3.22;;;;;;;;;;5073536;28;20283;-89
2022/10/31 10:53:32;;;;;;;7.07;3.10;;;;;;;;;;5073535;28;20052;-89
2022/10/31 10:55:59;;;;;;;11.50;2.65;;;;;;;;;;5073403;28;20083;-89
2022/10/31 10:58:26;;;;;;;11.30;2.67;;;;;;;;;;5074354;28;20052;-89
2022/10/31 11:00:55;;;;;;;9.50;3.55;;;;;;;;;;5073238;28;20500;-89
2022/10/31 11:03:22;;;;;;;22.38;3.33;;;;;;;;;;5073220;28;20060;-88
2022/10/31 11:05:58;;;;;;;17.45;3.30;;;;;;;;;;5072936;28;20505;-88
2022/10/31 11:08:29;;;;;;;7.60;2.90;;;;;;;;;;5073116;28;20127;-88
2022/10/31 11:11:01;;;;;;;9.82;2.40;;;;;;;;;;5072853;28;20044;-89
2022/10/31 11:13:30;;;;;;;9.15;2.70;;;;;;;;;;5073032;28;20408;-88
2022/10/31 11:16:02;;;;;;;7.22;2.72;;;;;;;;;;5072986;28;20052;-89
2022/10/31 11:18:34;;;;;;;9.43;2.60;;;;;;;;;;5086105;28;20533;-88
2022/10/31 11:21:03;;;;;;;10.13;3.15;;;;;;;;;;5072916;28;20059;-88
2022/10/31 11:23:31;;;;;;;6.65;2.97;;;;;;;;;;5072862;28;20049;-87
2022/10/31 11:25:58;;;;;;;16.73;3.30;;;;;;;;;;5072870;28;20068;-88
2022/10/31 11:28:29;;;;;;;8.32;2.90;;;;;;;;;;5072802;28;20135;-89
2022/10/31 11:30:58;;;;;;;9.88;2.75;;;;;;;;;;5072859;28;20480;-89
2022/10/31 11:33:25;;;;;;;13.07;2.85;;;;;;;;;;5072838;28;20048;-88
2022/10/31 11:35:53;;;;;;;11.13;3.03;;;;;;;;;;5072870;28;20048;-88
2022/10/31 11:38:26;;;;;;;6.88;3.00;;;;;;;;;;5073100;28;20127;-89
2022/10/31 11:40:55;;;;;;;5.65;2.78;;;;;;;;;;5072786;28;20489;-88
2022/10/31 11:43:22;;;;;;;6.70;2.70;;;;;;;;;;5072965;28;20102;-89
2022/10/31 11:45:50;;;;;;;8.15;2.75;;;;;;;;;;5073230;28;20047;-90
2022/10/31 11:48:19;;;;;;;7.03;3.17;;;;;;;;;;5073004;28;20053;-87
2022/10/31 11:50:51;;;;;;;13.20;3.40;;;;;;;;;;5073522;28;20052;-88
2022/10/31 11:53:21;;;;;;;8.90;3.22;;;;;;;;;;5072731;28;20068;-88
2022/10/31 11:55:48;;;;;;;11.48;3.10;;;;;;;;;;5072765;28;20139;-88
2022/10/31 11:58:21;;;;;;;8.35;3.50;;;;;;;;;;5072807;28;20535;-87
2022/10/31 12:00:55;;;;;;;12.07;3.20;;;;;;;;;;5072476;28;20052;-88
2022/10/31 12:03:22;;;;;;;9.50;3.35;;;;;;;;;;5072797;28;20140;-88
2022/10/31 12:05:52;;;;;;;11.65;3.10;;;;;;;;;;5072454;28;20075;-88
2022/10/31 12:08:19;;;;;;;10.23;3.38;;;;;;;;;;5072554;28;20058;-88
2022/10/31 12:10:52;;;;;;;7.57;2.97;;;;;;;;;;5072672;28;20057;-89
2022/10/31 12:13:19;;;;;;;13.50;3.40;;;;;;;;;;5073010;28;20052;-89
2022/10/31 12:15:52;;;;;;;8.63;3.90;;;;;;;;;;5072893;28;20048;-88
2022/10/31 12:18:33;;;;;;;6.57;2.92;;;;;;;;;;5072560;28;20044;-88
2022/10/31 12:21:12;;;;;;;9.50;3.50;;;;;;;;;;5072476;28;20163;-87
2022/10/31 12:23:58;;;;;;;9.40;3.53;;;;;;;;;;5074460;28;20049;-88
2022/10/31 12:26:43;;;;;;;6.45;3.33;;;;;;;;;;5076313;28;20051;-87
2022/10/31 12:29:30;;;;;;;9.68;4.07;;;;;;;;;;5076864;28;20054;-87
2022/10/31 12:32:06;;;;;;;8.98;3.80;;;;;;;;;;5077918;28;20056;-88
2022/10/31 12:34:33;;;;;;;8.80;3.60;;;;;;;;;;5087813;28;20059;-88
2022/10/31 12:37:07;;;;;;;9.35;3.00;;;;;;;;;;5076201;28;20058;-88
2022/10/31 12:39:34;;;;;;;;;;;;;;;;;;5077882;28;20078;-87
2022/10/31 12:42:13;;;;;;;10.85;4.70;;;;;;;;;;5076278;28;20317;-88
2022/10/31 12:44:56;;;;;;;42.45;26.75;;;;;;;;;;5076165;28;20492;-88
2022/10/31 12:47:29;;;;;;;22.60;11.27;;;;;;;;;;5075984;28;20060;-88
2022/10/31 12:49:57;;;;;;;186.48;87.32;;;;;;;;;;5076205;28;20056;-88
2022/10/31 12:52:32;;;;;;;207.27;78.13;;;;;;;;;;5075747;28;20072;-88
2022/10/31 12:55:19;;;;;;;453.48;190.50;;;;;;;;;;5075784;28;20067;-88
2022/10/31 12:57:49;;;;;;;119.93;48.13;;;;;;;;;;5076063;28;20052;-88
2022/10/31 13:00:17;;;;;;;159.93;61.95;;;;;;;;;;5075631;28;20055;-88
2022/10/31 13:02:44;;;;;;;89.68;34.58;;;;;;;;;;5075848;28;20062;-88
2022/10/31 13:05:15;;;;;;;63.90;27.40;;;;;;;;;;5075367;28;20226;-89
2022/10/31 13:07:53;;;;;;;15.52;6.32;;;;;;;;;;5076034;28;20135;-87
2022/10/31 13:10:24;;;;;;;18.55;9.98;;;;;;;;;;5075523;28;20059;-88
2022/10/31 13:12:53;;;;;;;16.23;7.00;;;;;;;;;;5075412;28;20044;-88
2022/10/31 13:15:27;;;;;;;21.60;9.80;;;;;;;;;;5075339;28;20052;-88
2022/10/31 13:17:54;;;;;;;;;;;;;;;;;;5075826;28;20082;-88
2022/10/31 13:20:27;;;;;;;36.63;20.75;;;;;;;;;;5075250;28;19927;-88
2022/10/31 13:22:57;;;;;;;15.20;8.25;;;;;;;;;;5075292;28;20127;-88
2022/10/31 13:25:24;;;;;;;65.60;37.75;;;;;;;;;;5075044;28;20049;-87
2022/10/31 13:28:03;;;;;;;23.63;12.70;;;;;;;;;;5075435;28;20072;-87
2022/10/31 13:30:33;;;;;;;33.88;13.57;;;;;;;;;;5075186;28;20048;-88
2022/10/31 13:33:11;;;;;;;41.33;18.50;;;;;;;;;;5075109;28;20045;-88
2022/10/31 13:35:49;;;;;;;24.60;11.38;;;;;;;;;;5074467;28;20060;-89
2022/10/31 13:38:20;;;;;;;28.77;13.82;;;;;;;;;;5074952;28;20136;-87
2022/10/31 13:40:59;;;;;;;20.60;9.73;;;;;;;;;;5074771;28;20068;-87
2022/10/31 13:43:27;;;;;;;11.55;5.40;;;;;;;;;;5074966;28;20054;-87
2022/10/31 13:45:55;;;;;;;12.93;4.60;;;;;;;;;;5074660;28;20052;-87
2022/10/31 13:48:25;;;;;;;6.75;3.95;;;;;;;;;;5079126;28;20049;-86
2022/10/31 13:50:57;;;;;;;14.25;6.35;;;;;;;;;;5082460;28;20491;-88
2022/10/31 13:53:36;;;;;;;16.63;8.32;;;;;;;;;;5074602;28;20132;-87
2022/10/31 13:56:06;;;;;;;24.75;10.48;;;;;;;;;;5074616;28;20052;-88
2022/10/31 13:58:33;;;;;;;17.70;7.78;;;;;;;;;;5074578;28;20056;-87
2022/10/31 14:01:03;;;;;;;13.13;5.07;;;;;;;;;;5074564;28;20048;-88
2022/10/31 14:03:31;;;;;;;14.68;5.78;;;;;;;;;;5074321;28;20063;-88
2022/10/31 14:06:18;;;;;;;8.68;4.03;;;;;;;;;;5074179;28;20057;-87
2022/10/31 14:08:49;;;;;;;8.52;4.40;;;;;;;;;;5074341;28;20051;-88
2022/10/31 14:11:26;;;;;;;10.27;3.90;;;;;;;;;;5074298;28;20055;-88
2022/10/31 14:14:01;;;;;;;5.13;3.05;;;;;;;;;;5074262;28;20056;-87
2022/10/31 14:16:30;;;;;;;5.88;3.47;;;;;;;;;;5074019;28;20139;-88
2022/10/31 14:18:59;;;;;;;7.63;3.80;;;;;;;;;;5074149;28;20465;-87
2022/10/31 14:21:28;;;;;;;8.27;3.40;;;;;;;;;;5073836;28;20610;-87
2022/10/31 14:23:57;;;;;;;13.95;3.58;;;;;;;;;;5074197;28;20048;-87
2022/10/31 14:26:28;;;;;;;11.48;4.15;;;;;;;;;;5073957;28;20056;-88
2022/10/31 14:28:56;;;;;;;7.93;4.05;;;;;;;;;;5074133;28;20052;-88
2022/10/31 14:31:34;;;;;;;10.48;4.22;;;;;;;;;;5073782;28;20056;-87
2022/10/31 14:34:05;;;;;;;7.80;3.55;;;;;;;;;;5073933;28;20041;-87
2022/10/31 14:36:59;;;;;;;9.70;4.32;;;;;;;;;;5073703;28;20064;-88
2022/10/31 14:39:32;;;;;;;11.73;3.67;;;;;;;;;;5071993;28;20051;-88
2022/10/31 14:42:05;;;;;;;18.92;4.70;;;;;;;;;;5073676;28;20052;-87
2022/10/31 14:44:32;;;;;;;11.57;4.07;;;;;;;;;;5073528;28;20135;-87
2022/10/31 14:47:08;;;;;;;11.70;5.05;;;;;;;;;;5072947;28;20048;-88
2022/10/31 14:49:41;;;;;;;10.10;4.55;;;;;;;;;;5073345;28;20074;-88
2022/10/31 14:52:09;;;;;;;10.27;4.45;;;;;;;;;;5073533;28;20409;-87
2022/10/31 14:54:41;;;;;;;11.63;5.20;;;;;;;;;;5073383;28;20053;-88